sensor_id;sensor_type;location;lat;lon;timestamp;P1;durP1;ratioP1;P2;durP2;ratioP2
17265;SDS011;8749;47.076;15.412;2022-09-30T00:00:35;7.97;;;7.18;;
17265;SDS011;8749;47.076;15.412;2022-09-30T00:03:01;7.53;;;6.82;;
17265;SDS011;8749;47.076;15.412;2022-09-30T00:05:28;7.47;;;6.88;;
17265;SDS011;8749;47.076;15.412;2022-09-30T00:07:55;7.78;;;7.18;;
17265;SDS011;8749;47.076;15.412;2022-09-30T00:10:22;7.90;;;7.20;;
17265;SDS011;8749;47.076;15.412;2022-09-30T00:12:50;7.63;;;6.93;;
17265;SDS011;8749;47.076;15.412;2022-09-30T00:15:17;7.75;;;7.15;;
17265;SDS011;8749;47.076;15.412;2022-09-30T00:17:46;8.00;;;7.30;;
17265;SDS011;8749;47.076;15.412;2022-09-30T00:20:13;8.00;;;7.20;;
17265;SDS011;8749;47.076;15.412;2022-09-30T00:22:40;8.02;;;7.22;;
17265;SDS011;8749;47.076;15.412;2022-09-30T00:25:09;8.27;;;7.38;;
17265;SDS011;8749;47.076;15.412;2022-09-30T00:27:36;7.78;;;7.18;;
17265;SDS011;8749;47.076;15.412;2022-09-30T00:30:03;9.60;;;8.45;;
17265;SDS011;8749;47.076;15.412;2022-09-30T00:32:30;9.75;;;8.25;;
17265;SDS011;8749;47.076;15.412;2022-09-30T00:34:58;8.50;;;7.70;;
17265;SDS011;8749;47.076;15.412;2022-09-30T00:37:25;9.27;;;7.63;;
17265;SDS011;8749;47.076;15.412;2022-09-30T00:39:52;8.38;;;7.63;;
17265;SDS011;8749;47.076;15.412;2022-09-30T00:42:19;9.50;;;7.82;;
17265;SDS011;8749;47.076;15.412;2022-09-30T00:44:48;9.18;;;8.27;;
17265;SDS011;8749;47.076;15.412;2022-09-30T00:47:31;14.05;;;9.00;;
17265;SDS011;8749;47.076;15.412;2022-09-30T00:50:04;8.98;;;8.05;;
17265;SDS011;8749;47.076;15.412;2022-09-30T00:52:38;8.77;;;7.97;;
17265;SDS011;8749;47.076;15.412;2022-09-30T00:55:07;9.57;;;8.68;;
17265;SDS011;8749;47.076;15.412;2022-09-30T00:57:43;9.07;;;8.27;;
17265;SDS011;8749;47.076;15.412;2022-09-30T01:00:11;8.82;;;7.93;;
17265;SDS011;8749;47.076;15.412;2022-09-30T01:02:38;8.68;;;7.88;;
17265;SDS011;8749;47.076;15.412;2022-09-30T01:05:07;9.23;;;8.32;;
17265;SDS011;8749;47.076;15.412;2022-09-30T01:07:35;8.63;;;7.82;;
17265;SDS011;8749;47.076;15.412;2022-09-30T01:10:03;8.18;;;7.38;;
17265;SDS011;8749;47.076;15.412;2022-09-30T01:12:30;8.32;;;7.53;;
17265;SDS011;8749;47.076;15.412;2022-09-30T01:14:58;8.05;;;7.25;;
17265;SDS011;8749;47.076;15.412;2022-09-30T01:17:31;7.82;;;7.13;;
17265;SDS011;8749;47.076;15.412;2022-09-30T01:23:13;7.55;;;6.63;;
17265;SDS011;8749;47.076;15.412;2022-09-30T01:26:05;6.95;;;6.22;;
17265;SDS011;8749;47.076;15.412;2022-09-30T01:28:52;7.10;;;6.50;;
17265;SDS011;8749;47.076;15.412;2022-09-30T01:31:44;7.57;;;6.82;;
17265;SDS011;8749;47.076;15.412;2022-09-30T01:34:22;7.40;;;6.65;;
17265;SDS011;8749;47.076;15.412;2022-09-30T01:37:02;7.80;;;6.95;;
17265;SDS011;8749;47.076;15.412;2022-09-30T01:39:36;7.05;;;6.45;;
17265;SDS011;8749;47.076;15.412;2022-09-30T01:42:12;7.75;;;6.82;;
17265;SDS011;8749;47.076;15.412;2022-09-30T01:44:51;8.13;;;7.32;;
17265;SDS011;8749;47.076;15.412;2022-09-30T01:47:29;7.57;;;6.78;;
17265;SDS011;8749;47.076;15.412;2022-09-30T01:49:58;8.30;;;7.40;;
17265;SDS011;8749;47.076;15.412;2022-09-30T01:52:32;8.07;;;7.38;;
17265;SDS011;8749;47.076;15.412;2022-09-30T01:55:05;7.72;;;6.93;;
17265;SDS011;8749;47.076;15.412;2022-09-30T01:57:38;9.00;;;7.30;;
17265;SDS011;8749;47.076;15.412;2022-09-30T02:00:12;8.07;;;7.28;;
17265;SDS011;8749;47.076;15.412;2022-09-30T02:02:43;8.05;;;7.25;;
17265;SDS011;8749;47.076;15.412;2022-09-30T02:05:15;7.70;;;6.95;;
17265;SDS011;8749;47.076;15.412;2022-09-30T02:07:45;8.98;;;8.05;;
17265;SDS011;8749;47.076;15.412;2022-09-30T02:10:16;9.10;;;7.80;;
17265;SDS011;8749;47.076;15.412;2022-09-30T02:12:49;8.43;;;7.40;;
17265;SDS011;8749;47.076;15.412;2022-09-30T02:15:21;8.20;;;7.40;;
17265;SDS011;8749;47.076;15.412;2022-09-30T02:17:53;7.70;;;6.75;;
17265;SDS011;8749;47.076;15.412;2022-09-30T02:20:25;7.30;;;6.50;;
17265;SDS011;8749;47.076;15.412;2022-09-30T02:22:54;7.03;;;6.43;;
17265;SDS011;8749;47.076;15.412;2022-09-30T02:25:26;7.43;;;6.70;;
17265;SDS011;8749;47.076;15.412;2022-09-30T02:27:59;8.35;;;6.80;;
17265;SDS011;8749;47.076;15.412;2022-09-30T02:30:31;9.13;;;6.53;;
17265;SDS011;8749;47.076;15.412;2022-09-30T02:33:03;7.03;;;6.32;;
17265;SDS011;8749;47.076;15.412;2022-09-30T02:35:33;7.43;;;6.72;;
17265;SDS011;8749;47.076;15.412;2022-09-30T02:38:03;7.10;;;6.38;;
17265;SDS011;8749;47.076;15.412;2022-09-30T02:40:37;6.60;;;6.00;;
17265;SDS011;8749;47.076;15.412;2022-09-30T02:43:07;7.32;;;5.32;;
17265;SDS011;8749;47.076;15.412;2022-09-30T02:45:37;5.82;;;5.32;;
17265;SDS011;8749;47.076;15.412;2022-09-30T02:48:16;7.32;;;5.40;;
17265;SDS011;8749;47.076;15.412;2022-09-30T02:50:50;5.88;;;5.30;;
17265;SDS011;8749;47.076;15.412;2022-09-30T02:53:22;6.18;;;5.68;;
17265;SDS011;8749;47.076;15.412;2022-09-30T02:55:59;6.00;;;5.40;;
17265;SDS011;8749;47.076;15.412;2022-09-30T02:58:36;5.93;;;5.43;;
17265;SDS011;8749;47.076;15.412;2022-09-30T03:01:04;6.28;;;5.78;;
17265;SDS011;8749;47.076;15.412;2022-09-30T03:03:34;6.32;;;5.80;;
17265;SDS011;8749;47.076;15.412;2022-09-30T03:06:04;6.53;;;5.85;;
17265;SDS011;8749;47.076;15.412;2022-09-30T03:08:31;6.78;;;6.07;;
17265;SDS011;8749;47.076;15.412;2022-09-30T03:10:58;7.88;;;6.95;;
17265;SDS011;8749;47.076;15.412;2022-09-30T03:13:32;7.50;;;6.70;;
17265;SDS011;8749;47.076;15.412;2022-09-30T03:16:18;8.10;;;7.30;;
17265;SDS011;8749;47.076;15.412;2022-09-30T03:19:08;8.25;;;7.40;;
17265;SDS011;8749;47.076;15.412;2022-09-30T03:21:52;7.90;;;6.90;;
17265;SDS011;8749;47.076;15.412;2022-09-30T03:24:44;8.48;;;7.18;;
17265;SDS011;8749;47.076;15.412;2022-09-30T03:27:28;8.75;;;6.90;;
17265;SDS011;8749;47.076;15.412;2022-09-30T03:30:01;7.55;;;6.75;;
17265;SDS011;8749;47.076;15.412;2022-09-30T03:32:40;8.60;;;7.70;;
17265;SDS011;8749;47.076;15.412;2022-09-30T03:35:20;8.38;;;7.10;;
17265;SDS011;8749;47.076;15.412;2022-09-30T03:37:56;8.40;;;6.55;;
17265;SDS011;8749;47.076;15.412;2022-09-30T03:40:28;7.70;;;7.05;;
17265;SDS011;8749;47.076;15.412;2022-09-30T03:43:02;7.78;;;6.97;;
17265;SDS011;8749;47.076;15.412;2022-09-30T03:45:35;7.32;;;6.65;;
17265;SDS011;8749;47.076;15.412;2022-09-30T03:48:07;7.50;;;6.80;;
17265;SDS011;8749;47.076;15.412;2022-09-30T03:50:38;8.85;;;7.35;;
17265;SDS011;8749;47.076;15.412;2022-09-30T03:53:07;7.65;;;6.85;;
17265;SDS011;8749;47.076;15.412;2022-09-30T03:55:42;7.22;;;6.43;;
17265;SDS011;8749;47.076;15.412;2022-09-30T03:58:11;8.85;;;6.75;;
17265;SDS011;8749;47.076;15.412;2022-09-30T04:00:39;7.40;;;6.70;;
17265;SDS011;8749;47.076;15.412;2022-09-30T04:03:10;7.10;;;6.50;;
17265;SDS011;8749;47.076;15.412;2022-09-30T04:05:39;7.07;;;6.38;;
17265;SDS011;8749;47.076;15.412;2022-09-30T04:08:06;9.55;;;7.63;;
17265;SDS011;8749;47.076;15.412;2022-09-30T04:10:33;8.25;;;6.57;;
17265;SDS011;8749;47.076;15.412;2022-09-30T04:13:00;6.65;;;5.95;;
17265;SDS011;8749;47.076;15.412;2022-09-30T04:15:27;6.20;;;5.60;;
17265;SDS011;8749;47.076;15.412;2022-09-30T04:17:54;7.13;;;6.43;;
17265;SDS011;8749;47.076;15.412;2022-09-30T04:20:21;20.90;;;15.13;;
17265;SDS011;8749;47.076;15.412;2022-09-30T04:22:49;27.60;;;20.88;;
17265;SDS011;8749;47.076;15.412;2022-09-30T04:25:16;23.55;;;16.73;;
17265;SDS011;8749;47.076;15.412;2022-09-30T04:27:43;10.38;;;9.13;;
17265;SDS011;8749;47.076;15.412;2022-09-30T04:30:10;18.65;;;13.80;;
17265;SDS011;8749;47.076;15.412;2022-09-30T04:32:37;24.38;;;17.58;;
17265;SDS011;8749;47.076;15.412;2022-09-30T04:35:09;19.42;;;14.98;;
17265;SDS011;8749;47.076;15.412;2022-09-30T04:37:39;12.07;;;10.10;;
17265;SDS011;8749;47.076;15.412;2022-09-30T04:40:09;8.00;;;7.20;;
17265;SDS011;8749;47.076;15.412;2022-09-30T04:42:36;6.40;;;5.80;;
17265;SDS011;8749;47.076;15.412;2022-09-30T04:45:05;8.48;;;7.55;;
17265;SDS011;8749;47.076;15.412;2022-09-30T04:47:33;8.43;;;6.65;;
17265;SDS011;8749;47.076;15.412;2022-09-30T04:50:00;7.93;;;6.10;;
17265;SDS011;8749;47.076;15.412;2022-09-30T04:52:27;6.53;;;5.93;;
17265;SDS011;8749;47.076;15.412;2022-09-30T04:54:56;6.57;;;5.85;;
17265;SDS011;8749;47.076;15.412;2022-09-30T04:57:24;7.13;;;5.78;;
17265;SDS011;8749;47.076;15.412;2022-09-30T04:59:52;8.32;;;6.05;;
17265;SDS011;8749;47.076;15.412;2022-09-30T05:02:20;7.55;;;6.43;;
17265;SDS011;8749;47.076;15.412;2022-09-30T05:04:47;7.20;;;6.50;;
17265;SDS011;8749;47.076;15.412;2022-09-30T05:07:14;7.78;;;6.32;;
17265;SDS011;8749;47.076;15.412;2022-09-30T05:09:41;7.18;;;6.47;;
17265;SDS011;8749;47.076;15.412;2022-09-30T05:12:08;19.92;;;12.10;;
17265;SDS011;8749;47.076;15.412;2022-09-30T05:14:36;15.70;;;11.50;;
17265;SDS011;8749;47.076;15.412;2022-09-30T05:17:03;13.90;;;9.32;;
17265;SDS011;8749;47.076;15.412;2022-09-30T05:19:30;10.70;;;8.10;;
17265;SDS011;8749;47.076;15.412;2022-09-30T05:21:57;7.85;;;7.05;;
17265;SDS011;8749;47.076;15.412;2022-09-30T05:24:24;7.38;;;6.68;;
17265;SDS011;8749;47.076;15.412;2022-09-30T05:26:51;7.70;;;6.90;;
17265;SDS011;8749;47.076;15.412;2022-09-30T05:29:18;6.75;;;6.05;;
17265;SDS011;8749;47.076;15.412;2022-09-30T05:31:46;7.47;;;6.78;;
17265;SDS011;8749;47.076;15.412;2022-09-30T05:34:13;7.22;;;6.53;;
17265;SDS011;8749;47.076;15.412;2022-09-30T05:36:41;8.43;;;7.15;;
17265;SDS011;8749;47.076;15.412;2022-09-30T05:39:08;7.95;;;7.15;;
17265;SDS011;8749;47.076;15.412;2022-09-30T05:41:36;7.90;;;7.10;;
17265;SDS011;8749;47.076;15.412;2022-09-30T05:44:03;8.95;;;7.43;;
17265;SDS011;8749;47.076;15.412;2022-09-30T05:46:30;9.25;;;7.10;;
17265;SDS011;8749;47.076;15.412;2022-09-30T05:48:58;8.13;;;7.18;;
17265;SDS011;8749;47.076;15.412;2022-09-30T05:51:25;8.23;;;7.38;;
17265;SDS011;8749;47.076;15.412;2022-09-30T05:53:52;8.02;;;6.90;;
17265;SDS011;8749;47.076;15.412;2022-09-30T05:56:19;8.13;;;7.30;;
17265;SDS011;8749;47.076;15.412;2022-09-30T05:58:46;9.15;;;7.78;;
17265;SDS011;8749;47.076;15.412;2022-09-30T06:01:14;7.85;;;7.05;;
17265;SDS011;8749;47.076;15.412;2022-09-30T06:03:42;8.98;;;6.82;;
17265;SDS011;8749;47.076;15.412;2022-09-30T06:06:11;7.75;;;6.95;;
17265;SDS011;8749;47.076;15.412;2022-09-30T06:08:39;10.05;;;7.03;;
17265;SDS011;8749;47.076;15.412;2022-09-30T06:11:07;7.15;;;6.45;;
17265;SDS011;8749;47.076;15.412;2022-09-30T06:13:37;7.47;;;6.55;;
17265;SDS011;8749;47.076;15.412;2022-09-30T06:16:04;8.13;;;6.55;;
17265;SDS011;8749;47.076;15.412;2022-09-30T06:18:32;6.50;;;5.90;;
17265;SDS011;8749;47.076;15.412;2022-09-30T06:21:00;6.88;;;5.80;;
17265;SDS011;8749;47.076;15.412;2022-09-30T06:23:31;5.90;;;5.40;;
17265;SDS011;8749;47.076;15.412;2022-09-30T06:25:59;7.55;;;4.72;;
17265;SDS011;8749;47.076;15.412;2022-09-30T06:28:27;9.55;;;4.35;;
17265;SDS011;8749;47.076;15.412;2022-09-30T06:30:54;5.13;;;4.68;;
17265;SDS011;8749;47.076;15.412;2022-09-30T06:33:21;9.55;;;7.30;;
17265;SDS011;8749;47.076;15.412;2022-09-30T06:35:49;11.30;;;8.43;;
17265;SDS011;8749;47.076;15.412;2022-09-30T06:38:16;11.05;;;9.18;;
17265;SDS011;8749;47.076;15.412;2022-09-30T06:40:44;9.38;;;7.93;;
17265;SDS011;8749;47.076;15.412;2022-09-30T06:43:14;7.75;;;5.55;;
17265;SDS011;8749;47.076;15.412;2022-09-30T06:45:41;4.93;;;4.53;;
17265;SDS011;8749;47.076;15.412;2022-09-30T06:48:08;4.60;;;4.20;;
17265;SDS011;8749;47.076;15.412;2022-09-30T06:50:35;4.72;;;4.30;;
17265;SDS011;8749;47.076;15.412;2022-09-30T06:53:03;5.20;;;4.80;;
17265;SDS011;8749;47.076;15.412;2022-09-30T06:55:32;9.27;;;6.50;;
17265;SDS011;8749;47.076;15.412;2022-09-30T06:58:04;7.07;;;6.40;;
17265;SDS011;8749;47.076;15.412;2022-09-30T07:00:32;7.38;;;6.47;;
17265;SDS011;8749;47.076;15.412;2022-09-30T07:03:00;8.23;;;6.80;;
17265;SDS011;8749;47.076;15.412;2022-09-30T07:05:29;10.43;;;7.00;;
17265;SDS011;8749;47.076;15.412;2022-09-30T07:07:56;8.85;;;7.55;;
17265;SDS011;8749;47.076;15.412;2022-09-30T07:10:25;29.30;;;21.10;;
17265;SDS011;8749;47.076;15.412;2022-09-30T07:12:52;32.80;;;23.67;;
17265;SDS011;8749;47.076;15.412;2022-09-30T07:15:20;21.50;;;15.43;;
17265;SDS011;8749;47.076;15.412;2022-09-30T07:17:50;12.45;;;10.38;;
17265;SDS011;8749;47.076;15.412;2022-09-30T07:20:17;13.85;;;7.57;;
17265;SDS011;8749;47.076;15.412;2022-09-30T07:22:45;8.77;;;7.30;;
17265;SDS011;8749;47.076;15.412;2022-09-30T07:25:12;9.25;;;7.43;;
17265;SDS011;8749;47.076;15.412;2022-09-30T07:27:39;7.93;;;7.22;;
17265;SDS011;8749;47.076;15.412;2022-09-30T07:30:07;10.02;;;7.03;;
17265;SDS011;8749;47.076;15.412;2022-09-30T07:32:37;7.65;;;6.95;;
17265;SDS011;8749;47.076;15.412;2022-09-30T07:35:04;12.35;;;10.02;;
17265;SDS011;8749;47.076;15.412;2022-09-30T07:37:33;10.77;;;8.95;;
17265;SDS011;8749;47.076;15.412;2022-09-30T07:40:02;10.02;;;8.35;;
17265;SDS011;8749;47.076;15.412;2022-09-30T07:42:31;11.80;;;7.53;;
17265;SDS011;8749;47.076;15.412;2022-09-30T07:44:58;10.38;;;7.20;;
17265;SDS011;8749;47.076;15.412;2022-09-30T07:47:26;8.25;;;6.68;;
17265;SDS011;8749;47.076;15.412;2022-09-30T07:49:54;7.68;;;6.90;;
17265;SDS011;8749;47.076;15.412;2022-09-30T07:52:21;8.40;;;6.28;;
17265;SDS011;8749;47.076;15.412;2022-09-30T07:54:48;8.10;;;6.35;;
17265;SDS011;8749;47.076;15.412;2022-09-30T07:57:15;6.93;;;6.20;;
17265;SDS011;8749;47.076;15.412;2022-09-30T07:59:42;7.43;;;6.68;;
17265;SDS011;8749;47.076;15.412;2022-09-30T08:02:10;9.07;;;6.80;;
17265;SDS011;8749;47.076;15.412;2022-09-30T08:04:40;8.38;;;5.93;;
17265;SDS011;8749;47.076;15.412;2022-09-30T08:07:09;7.55;;;6.78;;
17265;SDS011;8749;47.076;15.412;2022-09-30T08:09:36;10.70;;;6.55;;
17265;SDS011;8749;47.076;15.412;2022-09-30T08:12:03;7.25;;;6.38;;
17265;SDS011;8749;47.076;15.412;2022-09-30T08:14:30;7.00;;;6.30;;
17265;SDS011;8749;47.076;15.412;2022-09-30T08:16:57;8.48;;;6.10;;
17265;SDS011;8749;47.076;15.412;2022-09-30T08:19:25;7.80;;;6.75;;
17265;SDS011;8749;47.076;15.412;2022-09-30T08:21:53;7.18;;;6.38;;
17265;SDS011;8749;47.076;15.412;2022-09-30T08:24:21;8.40;;;6.68;;
17265;SDS011;8749;47.076;15.412;2022-09-30T08:26:49;6.55;;;5.95;;
17265;SDS011;8749;47.076;15.412;2022-09-30T08:29:16;7.85;;;7.15;;
17265;SDS011;8749;47.076;15.412;2022-09-30T08:31:43;8.00;;;7.20;;
17265;SDS011;8749;47.076;15.412;2022-09-30T08:34:10;7.55;;;6.80;;
17265;SDS011;8749;47.076;15.412;2022-09-30T08:36:37;8.80;;;7.28;;
17265;SDS011;8749;47.076;15.412;2022-09-30T08:39:04;10.75;;;7.60;;
17265;SDS011;8749;47.076;15.412;2022-09-30T08:44:39;6.70;;;6.10;;
17265;SDS011;8749;47.076;15.412;2022-09-30T08:47:14;8.00;;;7.15;;
17265;SDS011;8749;47.076;15.412;2022-09-30T08:50:07;9.10;;;7.05;;
17265;SDS011;8749;47.076;15.412;2022-09-30T08:52:41;8.63;;;7.47;;
17265;SDS011;8749;47.076;15.412;2022-09-30T08:55:13;7.55;;;6.85;;
17265;SDS011;8749;47.076;15.412;2022-09-30T08:57:46;9.38;;;7.65;;
17265;SDS011;8749;47.076;15.412;2022-09-30T09:00:15;9.02;;;7.75;;
17265;SDS011;8749;47.076;15.412;2022-09-30T09:02:44;9.52;;;8.25;;
17265;SDS011;8749;47.076;15.412;2022-09-30T09:05:15;9.75;;;8.38;;
17265;SDS011;8749;47.076;15.412;2022-09-30T09:07:50;8.98;;;7.93;;
17265;SDS011;8749;47.076;15.412;2022-09-30T09:10:27;8.63;;;7.15;;
17265;SDS011;8749;47.076;15.412;2022-09-30T09:13:06;7.40;;;6.65;;
17265;SDS011;8749;47.076;15.412;2022-09-30T09:15:48;6.70;;;6.10;;
17265;SDS011;8749;47.076;15.412;2022-09-30T09:18:22;6.75;;;5.78;;
17265;SDS011;8749;47.076;15.412;2022-09-30T09:21:21;5.70;;;5.20;;
17265;SDS011;8749;47.076;15.412;2022-09-30T09:23:54;5.68;;;5.25;;
17265;SDS011;8749;47.076;15.412;2022-09-30T09:26:25;5.95;;;5.45;;
17265;SDS011;8749;47.076;15.412;2022-09-30T09:29:00;6.25;;;5.15;;
17265;SDS011;8749;47.076;15.412;2022-09-30T09:31:34;5.28;;;4.90;;
17265;SDS011;8749;47.076;15.412;2022-09-30T09:34:06;5.35;;;4.90;;
17265;SDS011;8749;47.076;15.412;2022-09-30T09:36:38;5.05;;;4.60;;
17265;SDS011;8749;47.076;15.412;2022-09-30T09:39:20;13.77;;;9.30;;
17265;SDS011;8749;47.076;15.412;2022-09-30T09:41:57;6.45;;;5.90;;
17265;SDS011;8749;47.076;15.412;2022-09-30T09:44:34;5.30;;;4.78;;
17265;SDS011;8749;47.076;15.412;2022-09-30T09:47:07;4.50;;;4.20;;
17265;SDS011;8749;47.076;15.412;2022-09-30T09:49:39;6.07;;;4.20;;
17265;SDS011;8749;47.076;15.412;2022-09-30T09:55:04;5.75;;;3.75;;
17265;SDS011;8749;47.076;15.412;2022-09-30T09:57:33;6.60;;;4.07;;
17265;SDS011;8749;47.076;15.412;2022-09-30T10:00:03;3.75;;;3.45;;
17265;SDS011;8749;47.076;15.412;2022-09-30T10:02:57;4.13;;;3.80;;
17265;SDS011;8749;47.076;15.412;2022-09-30T10:05:29;3.42;;;3.22;;
17265;SDS011;8749;47.076;15.412;2022-09-30T10:08:11;3.80;;;3.25;;
17265;SDS011;8749;47.076;15.412;2022-09-30T10:10:44;3.42;;;3.22;;
17265;SDS011;8749;47.076;15.412;2022-09-30T10:13:17;4.60;;;3.17;;
17265;SDS011;8749;47.076;15.412;2022-09-30T10:15:48;3.47;;;3.17;;
17265;SDS011;8749;47.076;15.412;2022-09-30T10:18:22;2.88;;;2.67;;
17265;SDS011;8749;47.076;15.412;2022-09-30T10:20:52;3.42;;;3.22;;
17265;SDS011;8749;47.076;15.412;2022-09-30T10:23:24;9.15;;;8.25;;
17265;SDS011;8749;47.076;15.412;2022-09-30T10:25:53;11.50;;;7.20;;
17265;SDS011;8749;47.076;15.412;2022-09-30T10:28:22;6.15;;;4.18;;
17265;SDS011;8749;47.076;15.412;2022-09-30T10:30:53;6.55;;;5.95;;
17265;SDS011;8749;47.076;15.412;2022-09-30T10:33:25;5.85;;;4.70;;
17265;SDS011;8749;47.076;15.412;2022-09-30T10:36:05;4.22;;;3.92;;
17265;SDS011;8749;47.076;15.412;2022-09-30T10:38:34;3.28;;;3.03;;
17265;SDS011;8749;47.076;15.412;2022-09-30T10:41:10;3.67;;;3.47;;
17265;SDS011;8749;47.076;15.412;2022-09-30T10:43:38;3.10;;;3.00;;
17265;SDS011;8749;47.076;15.412;2022-09-30T10:46:09;4.15;;;3.70;;
17265;SDS011;8749;47.076;15.412;2022-09-30T10:48:37;3.50;;;3.20;;
17265;SDS011;8749;47.076;15.412;2022-09-30T10:51:15;2.72;;;2.60;;
17265;SDS011;8749;47.076;15.412;2022-09-30T10:53:47;2.70;;;2.50;;
17265;SDS011;8749;47.076;15.412;2022-09-30T10:56:21;2.53;;;2.40;;
17265;SDS011;8749;47.076;15.412;2022-09-30T10:59:02;2.38;;;2.28;;
17265;SDS011;8749;47.076;15.412;2022-09-30T11:01:35;2.55;;;2.22;;
17265;SDS011;8749;47.076;15.412;2022-09-30T11:04:10;2.42;;;2.28;;
17265;SDS011;8749;47.076;15.412;2022-09-30T11:06:44;4.05;;;1.92;;
17265;SDS011;8749;47.076;15.412;2022-09-30T11:09:13;2.58;;;2.30;;
17265;SDS011;8749;47.076;15.412;2022-09-30T11:11:46;2.30;;;2.10;;
17265;SDS011;8749;47.076;15.412;2022-09-30T11:14:20;2.20;;;2.08;;
17265;SDS011;8749;47.076;15.412;2022-09-30T11:16:59;2.78;;;2.30;;
17265;SDS011;8749;47.076;15.412;2022-09-30T11:19:32;2.65;;;2.55;;
17265;SDS011;8749;47.076;15.412;2022-09-30T11:22:09;9.02;;;7.82;;
17265;SDS011;8749;47.076;15.412;2022-09-30T11:24:55;5.20;;;4.80;;
17265;SDS011;8749;47.076;15.412;2022-09-30T11:27:26;3.33;;;3.13;;
17265;SDS011;8749;47.076;15.412;2022-09-30T11:30:07;2.53;;;2.30;;
17265;SDS011;8749;47.076;15.412;2022-09-30T11:32:45;2.45;;;2.25;;
17265;SDS011;8749;47.076;15.412;2022-09-30T11:35:27;2.50;;;2.20;;
17265;SDS011;8749;47.076;15.412;2022-09-30T11:38:08;1.90;;;1.90;;
17265;SDS011;8749;47.076;15.412;2022-09-30T11:40:41;3.00;;;1.90;;
17265;SDS011;8749;47.076;15.412;2022-09-30T11:43:21;1.90;;;1.90;;
17265;SDS011;8749;47.076;15.412;2022-09-30T11:46:13;1.90;;;1.83;;
17265;SDS011;8749;47.076;15.412;2022-09-30T11:48:59;1.88;;;1.85;;
17265;SDS011;8749;47.076;15.412;2022-09-30T11:51:47;2.15;;;2.08;;
17265;SDS011;8749;47.076;15.412;2022-09-30T11:54:24;3.85;;;3.42;;
17265;SDS011;8749;47.076;15.412;2022-09-30T11:56:59;2.40;;;2.20;;
17265;SDS011;8749;47.076;15.412;2022-09-30T11:59:34;2.08;;;1.98;;
17265;SDS011;8749;47.076;15.412;2022-09-30T12:02:11;2.30;;;2.20;;
17265;SDS011;8749;47.076;15.412;2022-09-30T12:04:47;3.38;;;3.17;;
17265;SDS011;8749;47.076;15.412;2022-09-30T12:07:16;2.30;;;2.13;;
17265;SDS011;8749;47.076;15.412;2022-09-30T12:09:47;2.22;;;2.00;;
17265;SDS011;8749;47.076;15.412;2022-09-30T12:12:17;2.35;;;2.13;;
17265;SDS011;8749;47.076;15.412;2022-09-30T12:14:45;1.80;;;1.80;;
17265;SDS011;8749;47.076;15.412;2022-09-30T12:17:17;2.08;;;1.73;;
17265;SDS011;8749;47.076;15.412;2022-09-30T12:19:49;1.80;;;1.70;;
17265;SDS011;8749;47.076;15.412;2022-09-30T12:22:19;1.85;;;1.80;;
17265;SDS011;8749;47.076;15.412;2022-09-30T12:24:52;1.70;;;1.70;;
17265;SDS011;8749;47.076;15.412;2022-09-30T12:27:20;1.75;;;1.65;;
17265;SDS011;8749;47.076;15.412;2022-09-30T12:29:53;1.65;;;1.60;;
17265;SDS011;8749;47.076;15.412;2022-09-30T12:36:03;1.52;;;1.42;;
17265;SDS011;8749;47.076;15.412;2022-09-30T12:42:07;1.48;;;1.48;;
17265;SDS011;8749;47.076;15.412;2022-09-30T12:47:29;1.42;;;1.33;;
17265;SDS011;8749;47.076;15.412;2022-09-30T12:49:57;1.63;;;1.60;;
17265;SDS011;8749;47.076;15.412;2022-09-30T12:52:30;1.45;;;1.35;;
17265;SDS011;8749;47.076;15.412;2022-09-30T12:55:00;1.55;;;1.45;;
17265;SDS011;8749;47.076;15.412;2022-09-30T12:57:31;1.50;;;1.50;;
17265;SDS011;8749;47.076;15.412;2022-09-30T13:00:03;1.35;;;1.35;;
17265;SDS011;8749;47.076;15.412;2022-09-30T13:02:39;2.22;;;2.03;;
17265;SDS011;8749;47.076;15.412;2022-09-30T13:08:23;5.43;;;1.60;;
17265;SDS011;8749;47.076;15.412;2022-09-30T13:11:05;1.77;;;1.45;;
17265;SDS011;8749;47.076;15.412;2022-09-30T13:13:55;1.42;;;1.40;;
17265;SDS011;8749;47.076;15.412;2022-09-30T13:19:30;1.30;;;1.30;;
17265;SDS011;8749;47.076;15.412;2022-09-30T13:25:17;1.60;;;1.50;;
17265;SDS011;8749;47.076;15.412;2022-09-30T13:27:45;1.67;;;1.40;;
17265;SDS011;8749;47.076;15.412;2022-09-30T13:33:05;1.52;;;1.45;;
17265;SDS011;8749;47.076;15.412;2022-09-30T13:35:48;1.75;;;1.40;;
17265;SDS011;8749;47.076;15.412;2022-09-30T13:38:17;1.20;;;1.20;;
17265;SDS011;8749;47.076;15.412;2022-09-30T13:40:48;1.60;;;1.50;;
17265;SDS011;8749;47.076;15.412;2022-09-30T13:43:19;1.38;;;1.38;;
17265;SDS011;8749;47.076;15.412;2022-09-30T13:45:51;1.48;;;1.40;;
17265;SDS011;8749;47.076;15.412;2022-09-30T13:48:21;1.42;;;1.38;;
17265;SDS011;8749;47.076;15.412;2022-09-30T13:50:54;1.30;;;1.20;;
17265;SDS011;8749;47.076;15.412;2022-09-30T13:53:26;1.65;;;1.30;;
17265;SDS011;8749;47.076;15.412;2022-09-30T13:55:57;1.98;;;1.40;;
17265;SDS011;8749;47.076;15.412;2022-09-30T14:01:58;1.48;;;1.40;;
17265;SDS011;8749;47.076;15.412;2022-09-30T14:07:47;1.60;;;1.60;;
17265;SDS011;8749;47.076;15.412;2022-09-30T14:10:31;1.80;;;1.70;;
17265;SDS011;8749;47.076;15.412;2022-09-30T14:19:08;1.70;;;1.70;;
17265;SDS011;8749;47.076;15.412;2022-09-30T14:22:02;2.72;;;2.53;;
17265;SDS011;8749;47.076;15.412;2022-09-30T14:24:33;9.45;;;7.60;;
17265;SDS011;8749;47.076;15.412;2022-09-30T14:27:10;4.90;;;4.50;;
17265;SDS011;8749;47.076;15.412;2022-09-30T14:29:59;4.80;;;4.30;;
17265;SDS011;8749;47.076;15.412;2022-09-30T14:32:31;2.30;;;2.20;;
17265;SDS011;8749;47.076;15.412;2022-09-30T14:35:04;1.80;;;1.80;;
17265;SDS011;8749;47.076;15.412;2022-09-30T14:37:35;1.77;;;1.77;;
17265;SDS011;8749;47.076;15.412;2022-09-30T14:40:08;3.75;;;1.80;;
17265;SDS011;8749;47.076;15.412;2022-09-30T14:42:36;1.90;;;1.80;;
17265;SDS011;8749;47.076;15.412;2022-09-30T14:45:08;2.35;;;1.95;;
17265;SDS011;8749;47.076;15.412;2022-09-30T14:47:42;2.20;;;2.10;;
17265;SDS011;8749;47.076;15.412;2022-09-30T14:50:13;2.03;;;1.90;;
17265;SDS011;8749;47.076;15.412;2022-09-30T14:52:44;2.42;;;2.20;;
17265;SDS011;8749;47.076;15.412;2022-09-30T14:55:20;4.60;;;4.30;;
17265;SDS011;8749;47.076;15.412;2022-09-30T14:57:49;4.47;;;4.10;;
17265;SDS011;8749;47.076;15.412;2022-09-30T15:00:25;3.42;;;3.20;;
17265;SDS011;8749;47.076;15.412;2022-09-30T15:02:55;2.85;;;2.70;;
17265;SDS011;8749;47.076;15.412;2022-09-30T15:05:23;3.08;;;2.88;;
17265;SDS011;8749;47.076;15.412;2022-09-30T15:07:50;3.92;;;3.58;;
17265;SDS011;8749;47.076;15.412;2022-09-30T15:10:19;2.40;;;2.30;;
17265;SDS011;8749;47.076;15.412;2022-09-30T15:12:49;2.70;;;2.50;;
17265;SDS011;8749;47.076;15.412;2022-09-30T15:15:33;2.30;;;2.20;;
17265;SDS011;8749;47.076;15.412;2022-09-30T15:20:51;2.30;;;2.10;;
17265;SDS011;8749;47.076;15.412;2022-09-30T15:23:21;2.42;;;2.20;;
17265;SDS011;8749;47.076;15.412;2022-09-30T15:25:51;2.67;;;2.30;;
17265;SDS011;8749;47.076;15.412;2022-09-30T15:28:19;2.20;;;2.10;;
17265;SDS011;8749;47.076;15.412;2022-09-30T15:30:47;2.90;;;2.70;;
17265;SDS011;8749;47.076;15.412;2022-09-30T15:33:19;2.58;;;2.40;;
17265;SDS011;8749;47.076;15.412;2022-09-30T15:35:49;2.40;;;2.30;;
17265;SDS011;8749;47.076;15.412;2022-09-30T15:38:18;2.13;;;2.03;;
17265;SDS011;8749;47.076;15.412;2022-09-30T15:40:50;3.38;;;2.58;;
17265;SDS011;8749;47.076;15.412;2022-09-30T15:43:30;2.55;;;2.40;;
17265;SDS011;8749;47.076;15.412;2022-09-30T15:46:14;3.88;;;3.58;;
17265;SDS011;8749;47.076;15.412;2022-09-30T15:48:43;9.45;;;7.43;;
17265;SDS011;8749;47.076;15.412;2022-09-30T15:51:24;6.78;;;4.90;;
17265;SDS011;8749;47.076;15.412;2022-09-30T15:53:59;8.10;;;6.18;;
17265;SDS011;8749;47.076;15.412;2022-09-30T15:56:32;4.72;;;4.28;;
17265;SDS011;8749;47.076;15.412;2022-09-30T15:59:01;4.35;;;4.05;;